sensor_id;sensor_type;location;lat;lon;timestamp;P1;durP1;ratioP1;P2;durP2;ratioP2
1991;SDS011;997;48.448;8.924;2023-11-19T00:00:42;3.47;;;3.17;;
1991;SDS011;997;48.448;8.924;2023-11-19T00:03:08;3.30;;;3.00;;
1991;SDS011;997;48.448;8.924;2023-11-19T00:05:33;3.00;;;2.80;;
1991;SDS011;997;48.448;8.924;2023-11-19T00:07:59;2.70;;;2.50;;
1991;SDS011;997;48.448;8.924;2023-11-19T00:10:25;3.63;;;3.33;;
1991;SDS011;997;48.448;8.924;2023-11-19T00:12:50;4.50;;;3.53;;
1991;SDS011;997;48.448;8.924;2023-11-19T00:15:16;3.63;;;3.43;;
1991;SDS011;997;48.448;8.924;2023-11-19T00:17:46;4.00;;;3.60;;
1991;SDS011;997;48.448;8.924;2023-11-19T00:20:13;4.20;;;3.50;;
1991;SDS011;997;48.448;8.924;2023-11-19T00:22:40;3.20;;;3.00;;
1991;SDS011;997;48.448;8.924;2023-11-19T00:25:07;4.40;;;2.80;;
1991;SDS011;997;48.448;8.924;2023-11-19T00:27:33;3.50;;;3.20;;
1991;SDS011;997;48.448;8.924;2023-11-19T00:29:59;2.17;;;2.07;;
1991;SDS011;997;48.448;8.924;2023-11-19T00:32:25;2.70;;;2.50;;
1991;SDS011;997;48.448;8.924;2023-11-19T00:34:51;2.80;;;2.60;;
1991;SDS011;997;48.448;8.924;2023-11-19T00:37:16;2.80;;;2.50;;
1991;SDS011;997;48.448;8.924;2023-11-19T00:39:42;2.63;;;2.43;;
1991;SDS011;997;48.448;8.924;2023-11-19T00:42:11;5.50;;;2.53;;
1991;SDS011;997;48.448;8.924;2023-11-19T00:44:37;2.70;;;2.40;;
1991;SDS011;997;48.448;8.924;2023-11-19T00:47:02;2.60;;;2.40;;
1991;SDS011;997;48.448;8.924;2023-11-19T00:49:30;2.33;;;2.13;;
1991;SDS011;997;48.448;8.924;2023-11-19T00:51:57;3.23;;;2.40;;
1991;SDS011;997;48.448;8.924;2023-11-19T00:54:24;2.50;;;2.20;;
1991;SDS011;997;48.448;8.924;2023-11-19T00:56:51;2.57;;;2.37;;
1991;SDS011;997;48.448;8.924;2023-11-19T00:59:17;2.37;;;2.20;;
1991;SDS011;997;48.448;8.924;2023-11-19T01:01:43;2.47;;;2.30;;
1991;SDS011;997;48.448;8.924;2023-11-19T01:04:09;3.13;;;2.83;;
1991;SDS011;997;48.448;8.924;2023-11-19T01:06:34;2.53;;;2.33;;
1991;SDS011;997;48.448;8.924;2023-11-19T01:09:00;2.67;;;2.47;;
1991;SDS011;997;48.448;8.924;2023-11-19T01:11:26;2.17;;;1.97;;
1991;SDS011;997;48.448;8.924;2023-11-19T01:13:51;2.30;;;2.10;;
1991;SDS011;997;48.448;8.924;2023-11-19T01:16:17;2.10;;;2.00;;
1991;SDS011;997;48.448;8.924;2023-11-19T01:18:44;2.33;;;2.13;;
1991;SDS011;997;48.448;8.924;2023-11-19T01:21:12;1.67;;;1.57;;
1991;SDS011;997;48.448;8.924;2023-11-19T01:23:39;1.60;;;1.50;;
1991;SDS011;997;48.448;8.924;2023-11-19T01:26:08;2.03;;;1.73;;
1991;SDS011;997;48.448;8.924;2023-11-19T09:42:28;1.07;;;0.43;;
1991;SDS011;997;48.448;8.924;2023-11-19T09:44:56;1.67;;;0.70;;
1991;SDS011;997;48.448;8.924;2023-11-19T09:47:24;0.70;;;0.60;;
1991;SDS011;997;48.448;8.924;2023-11-19T09:49:52;1.10;;;1.00;;
1991;SDS011;997;48.448;8.924;2023-11-19T09:52:19;1.13;;;0.80;;
1991;SDS011;997;48.448;8.924;2023-11-19T09:54:44;1.07;;;0.83;;
1991;SDS011;997;48.448;8.924;2023-11-19T09:57:10;0.83;;;0.73;;
1991;SDS011;997;48.448;8.924;2023-11-19T09:59:38;2.80;;;1.10;;
1991;SDS011;997;48.448;8.924;2023-11-19T10:02:04;4.50;;;1.10;;
1991;SDS011;997;48.448;8.924;2023-11-19T10:04:32;0.90;;;0.80;;
1991;SDS011;997;48.448;8.924;2023-11-19T10:07:00;0.90;;;0.80;;
1991;SDS011;997;48.448;8.924;2023-11-19T10:09:26;0.80;;;0.80;;
1991;SDS011;997;48.448;8.924;2023-11-19T10:11:52;0.60;;;0.60;;
1991;SDS011;997;48.448;8.924;2023-11-19T10:35:04;1.03;;;0.80;;
1991;SDS011;997;48.448;8.924;2023-11-19T10:37:31;1.40;;;1.30;;
1991;SDS011;997;48.448;8.924;2023-11-19T10:39:57;1.00;;;0.93;;
1991;SDS011;997;48.448;8.924;2023-11-19T10:42:23;4.03;;;0.83;;
1991;SDS011;997;48.448;8.924;2023-11-19T10:44:49;1.10;;;1.00;;
1991;SDS011;997;48.448;8.924;2023-11-19T10:47:14;1.10;;;1.00;;
1991;SDS011;997;48.448;8.924;2023-11-19T10:49:44;2.03;;;1.30;;
1991;SDS011;997;48.448;8.924;2023-11-19T11:59:49;2.30;;;0.87;;
1991;SDS011;997;48.448;8.924;2023-11-19T12:02:16;1.00;;;0.87;;
1991;SDS011;997;48.448;8.924;2023-11-19T12:04:46;0.73;;;0.60;;
1991;SDS011;997;48.448;8.924;2023-11-19T12:07:22;1.00;;;0.70;;
1991;SDS011;997;48.448;8.924;2023-11-19T12:09:53;1.70;;;1.20;;
1991;SDS011;997;48.448;8.924;2023-11-19T12:12:30;1.53;;;1.20;;
1991;SDS011;997;48.448;8.924;2023-11-19T12:20:01;1.47;;;0.80;;
1991;SDS011;997;48.448;8.924;2023-11-19T12:22:31;1.33;;;0.70;;
1991;SDS011;997;48.448;8.924;2023-11-19T12:24:56;1.50;;;1.17;;
1991;SDS011;997;48.448;8.924;2023-11-19T12:27:23;1.43;;;1.00;;
1991;SDS011;997;48.448;8.924;2023-11-19T12:29:48;1.43;;;1.20;;
1991;SDS011;997;48.448;8.924;2023-11-19T12:32:14;1.30;;;1.20;;
1991;SDS011;997;48.448;8.924;2023-11-19T12:34:40;0.80;;;0.63;;
1991;SDS011;997;48.448;8.924;2023-11-19T12:37:07;3.10;;;0.73;;
1991;SDS011;997;48.448;8.924;2023-11-19T12:39:36;2.80;;;0.80;;
1991;SDS011;997;48.448;8.924;2023-11-19T12:42:02;1.90;;;1.20;;
1991;SDS011;997;48.448;8.924;2023-11-19T12:44:27;0.90;;;0.83;;
1991;SDS011;997;48.448;8.924;2023-11-19T12:47:14;1.33;;;0.80;;
1991;SDS011;997;48.448;8.924;2023-11-19T12:49:39;1.00;;;0.90;;
1991;SDS011;997;48.448;8.924;2023-11-19T12:52:11;3.10;;;1.97;;
1991;SDS011;997;48.448;8.924;2023-11-19T12:54:38;2.00;;;1.10;;
1991;SDS011;997;48.448;8.924;2023-11-19T12:57:04;2.73;;;0.80;;
1991;SDS011;997;48.448;8.924;2023-11-19T12:59:30;2.63;;;1.30;;
1991;SDS011;997;48.448;8.924;2023-11-19T13:02:00;1.40;;;1.30;;
1991;SDS011;997;48.448;8.924;2023-11-19T13:04:30;2.10;;;0.83;;
1991;SDS011;997;48.448;8.924;2023-11-19T13:06:57;1.20;;;0.93;;
1991;SDS011;997;48.448;8.924;2023-11-19T13:09:29;1.70;;;1.20;;
1991;SDS011;997;48.448;8.924;2023-11-19T13:11:55;1.67;;;1.57;;
1991;SDS011;997;48.448;8.924;2023-11-19T13:14:35;1.87;;;1.57;;
1991;SDS011;997;48.448;8.924;2023-11-19T13:17:03;4.70;;;1.80;;
1991;SDS011;997;48.448;8.924;2023-11-19T13:19:29;2.00;;;1.37;;
1991;SDS011;997;48.448;8.924;2023-11-19T13:21:55;1.17;;;1.07;;
1991;SDS011;997;48.448;8.924;2023-11-19T13:24:21;1.30;;;1.03;;
1991;SDS011;997;48.448;8.924;2023-11-19T13:26:46;1.10;;;0.90;;
1991;SDS011;997;48.448;8.924;2023-11-19T13:29:12;1.20;;;1.10;;
1991;SDS011;997;48.448;8.924;2023-11-19T13:31:37;1.30;;;1.20;;
1991;SDS011;997;48.448;8.924;2023-11-19T13:34:03;0.93;;;0.70;;
1991;SDS011;997;48.448;8.924;2023-11-19T13:36:29;2.70;;;0.80;;
1991;SDS011;997;48.448;8.924;2023-11-19T13:38:56;3.37;;;0.70;;
1991;SDS011;997;48.448;8.924;2023-11-19T13:41:24;1.20;;;0.77;;
1991;SDS011;997;48.448;8.924;2023-11-19T13:43:51;1.73;;;1.37;;
1991;SDS011;997;48.448;8.924;2023-11-19T13:46:16;1.37;;;1.00;;
1991;SDS011;997;48.448;8.924;2023-11-19T13:48:42;1.20;;;1.00;;
1991;SDS011;997;48.448;8.924;2023-11-19T13:51:08;1.57;;;0.80;;
1991;SDS011;997;48.448;8.924;2023-11-19T13:53:35;2.50;;;0.63;;
1991;SDS011;997;48.448;8.924;2023-11-19T13:56:01;1.70;;;0.90;;
1991;SDS011;997;48.448;8.924;2023-11-19T13:58:26;1.17;;;1.07;;
1991;SDS011;997;48.448;8.924;2023-11-19T14:00:52;0.77;;;0.63;;
1991;SDS011;997;48.448;8.924;2023-11-19T14:03:18;1.93;;;0.90;;
1991;SDS011;997;48.448;8.924;2023-11-19T14:05:44;1.93;;;0.70;;
1991;SDS011;997;48.448;8.924;2023-11-19T14:08:10;3.97;;;1.43;;
1991;SDS011;997;48.448;8.924;2023-11-19T14:10:36;2.40;;;0.77;;
1991;SDS011;997;48.448;8.924;2023-11-19T14:13:04;2.10;;;0.80;;
1991;SDS011;997;48.448;8.924;2023-11-19T14:15:30;1.47;;;0.93;;
1991;SDS011;997;48.448;8.924;2023-11-19T14:17:56;0.80;;;0.63;;
1991;SDS011;997;48.448;8.924;2023-11-19T14:20:21;1.50;;;0.90;;
1991;SDS011;997;48.448;8.924;2023-11-19T14:22:47;1.00;;;0.90;;
1991;SDS011;997;48.448;8.924;2023-11-19T14:25:14;1.30;;;0.90;;
1991;SDS011;997;48.448;8.924;2023-11-19T14:27:40;0.97;;;0.87;;
1991;SDS011;997;48.448;8.924;2023-11-19T14:30:07;2.00;;;1.03;;
1991;SDS011;997;48.448;8.924;2023-11-19T14:32:36;1.10;;;0.97;;
1991;SDS011;997;48.448;8.924;2023-11-19T14:35:02;1.83;;;0.90;;
1991;SDS011;997;48.448;8.924;2023-11-19T14:37:28;3.37;;;1.00;;
1991;SDS011;997;48.448;8.924;2023-11-19T14:39:56;7.13;;;1.37;;
1991;SDS011;997;48.448;8.924;2023-11-19T14:42:23;1.47;;;1.37;;
1991;SDS011;997;48.448;8.924;2023-11-19T14:44:50;1.13;;;0.83;;
1991;SDS011;997;48.448;8.924;2023-11-19T14:47:18;2.80;;;0.77;;
1991;SDS011;997;48.448;8.924;2023-11-19T14:49:44;1.10;;;0.80;;
1991;SDS011;997;48.448;8.924;2023-11-19T14:52:09;1.30;;;0.87;;
1991;SDS011;997;48.448;8.924;2023-11-19T14:54:36;0.97;;;0.60;;
1991;SDS011;997;48.448;8.924;2023-11-19T14:57:02;1.10;;;1.00;;
1991;SDS011;997;48.448;8.924;2023-11-19T14:59:28;0.80;;;0.80;;
1991;SDS011;997;48.448;8.924;2023-11-19T15:01:54;2.43;;;1.27;;
1991;SDS011;997;48.448;8.924;2023-11-19T15:04:19;2.83;;;1.10;;
1991;SDS011;997;48.448;8.924;2023-11-19T15:06:45;2.37;;;1.00;;
1991;SDS011;997;48.448;8.924;2023-11-19T15:09:11;0.97;;;0.87;;
1991;SDS011;997;48.448;8.924;2023-11-19T15:11:42;2.07;;;1.37;;
1991;SDS011;997;48.448;8.924;2023-11-19T15:14:11;2.60;;;1.47;;
1991;SDS011;997;48.448;8.924;2023-11-19T15:16:42;1.10;;;0.90;;
1991;SDS011;997;48.448;8.924;2023-11-19T15:19:08;1.87;;;1.77;;
1991;SDS011;997;48.448;8.924;2023-11-19T15:21:34;2.63;;;2.43;;
1991;SDS011;997;48.448;8.924;2023-11-19T15:24:00;3.70;;;3.40;;
1991;SDS011;997;48.448;8.924;2023-11-19T15:26:27;2.00;;;1.30;;
1991;SDS011;997;48.448;8.924;2023-11-19T15:28:52;2.40;;;2.20;;
1991;SDS011;997;48.448;8.924;2023-11-19T15:31:21;2.07;;;1.17;;
1991;SDS011;997;48.448;8.924;2023-11-19T15:33:47;2.87;;;2.67;;
1991;SDS011;997;48.448;8.924;2023-11-19T15:36:13;3.80;;;3.47;;
1991;SDS011;997;48.448;8.924;2023-11-19T15:38:39;3.10;;;2.90;;
1991;SDS011;997;48.448;8.924;2023-11-19T15:41:05;2.77;;;2.57;;
1991;SDS011;997;48.448;8.924;2023-11-19T15:43:32;7.07;;;6.13;;
1991;SDS011;997;48.448;8.924;2023-11-19T15:45:58;5.60;;;5.10;;
1991;SDS011;997;48.448;8.924;2023-11-19T15:48:24;3.50;;;2.90;;
1991;SDS011;997;48.448;8.924;2023-11-19T15:50:50;3.90;;;3.60;;
1991;SDS011;997;48.448;8.924;2023-11-19T15:53:17;5.70;;;5.20;;
1991;SDS011;997;48.448;8.924;2023-11-19T15:55:43;3.37;;;3.07;;
1991;SDS011;997;48.448;8.924;2023-11-19T15:58:10;1.50;;;1.17;;
1991;SDS011;997;48.448;8.924;2023-11-19T16:00:36;2.23;;;2.03;;
1991;SDS011;997;48.448;8.924;2023-11-19T16:03:01;2.00;;;1.20;;
1991;SDS011;997;48.448;8.924;2023-11-19T16:05:27;1.30;;;1.20;;
1991;SDS011;997;48.448;8.924;2023-11-19T16:07:53;1.67;;;1.57;;
1991;SDS011;997;48.448;8.924;2023-11-19T16:10:19;4.87;;;2.13;;
1991;SDS011;997;48.448;8.924;2023-11-19T16:12:45;1.97;;;1.50;;
1991;SDS011;997;48.448;8.924;2023-11-19T16:15:11;3.00;;;2.27;;
1991;SDS011;997;48.448;8.924;2023-11-19T16:17:39;3.80;;;3.50;;
1991;SDS011;997;48.448;8.924;2023-11-19T16:20:06;3.20;;;1.97;;
1991;SDS011;997;48.448;8.924;2023-11-19T16:22:35;4.17;;;2.00;;
1991;SDS011;997;48.448;8.924;2023-11-19T16:25:04;2.90;;;2.70;;
1991;SDS011;997;48.448;8.924;2023-11-19T16:27:31;3.30;;;1.57;;
1991;SDS011;997;48.448;8.924;2023-11-19T16:29:57;1.23;;;1.13;;
1991;SDS011;997;48.448;8.924;2023-11-19T16:32:23;1.43;;;1.07;;
1991;SDS011;997;48.448;8.924;2023-11-19T16:34:49;1.57;;;1.47;;
1991;SDS011;997;48.448;8.924;2023-11-19T16:37:16;2.10;;;1.47;;
1991;SDS011;997;48.448;8.924;2023-11-19T16:39:42;1.10;;;1.00;;
1991;SDS011;997;48.448;8.924;2023-11-19T16:42:09;1.70;;;1.60;;
1991;SDS011;997;48.448;8.924;2023-11-19T16:44:35;3.17;;;2.07;;
1991;SDS011;997;48.448;8.924;2023-11-19T16:47:01;4.43;;;3.43;;
1991;SDS011;997;48.448;8.924;2023-11-19T16:49:28;2.60;;;1.73;;
1991;SDS011;997;48.448;8.924;2023-11-19T16:51:53;2.10;;;1.90;;
1991;SDS011;997;48.448;8.924;2023-11-19T16:54:19;1.80;;;1.70;;
1991;SDS011;997;48.448;8.924;2023-11-19T16:56:44;2.50;;;1.93;;
1991;SDS011;997;48.448;8.924;2023-11-19T16:59:10;1.67;;;1.37;;
1991;SDS011;997;48.448;8.924;2023-11-19T17:01:36;2.80;;;2.60;;
1991;SDS011;997;48.448;8.924;2023-11-19T17:04:05;2.30;;;2.00;;
1991;SDS011;997;48.448;8.924;2023-11-19T17:06:32;1.97;;;1.60;;
1991;SDS011;997;48.448;8.924;2023-11-19T17:08:59;2.23;;;2.03;;
1991;SDS011;997;48.448;8.924;2023-11-19T17:11:25;2.40;;;2.13;;
1991;SDS011;997;48.448;8.924;2023-11-19T17:13:51;1.90;;;1.80;;
1991;SDS011;997;48.448;8.924;2023-11-19T17:16:17;2.20;;;1.83;;
1991;SDS011;997;48.448;8.924;2023-11-19T17:18:43;1.60;;;1.50;;
1991;SDS011;997;48.448;8.924;2023-11-19T17:21:08;1.63;;;1.23;;
1991;SDS011;997;48.448;8.924;2023-11-19T17:23:34;1.70;;;1.43;;
1991;SDS011;997;48.448;8.924;2023-11-19T17:26:01;4.40;;;1.40;;
1991;SDS011;997;48.448;8.924;2023-11-19T17:28:27;2.83;;;1.40;;
1991;SDS011;997;48.448;8.924;2023-11-19T17:30:52;2.50;;;1.23;;
1991;SDS011;997;48.448;8.924;2023-11-19T17:33:19;1.60;;;1.40;;
1991;SDS011;997;48.448;8.924;2023-11-19T17:35:44;2.20;;;1.60;;
1991;SDS011;997;48.448;8.924;2023-11-19T17:38:10;1.90;;;1.80;;
1991;SDS011;997;48.448;8.924;2023-11-19T17:40:36;4.33;;;2.00;;
1991;SDS011;997;48.448;8.924;2023-11-19T17:43:02;3.83;;;3.53;;
1991;SDS011;997;48.448;8.924;2023-11-19T17:45:28;4.40;;;2.90;;
1991;SDS011;997;48.448;8.924;2023-11-19T17:47:54;5.30;;;4.80;;
1991;SDS011;997;48.448;8.924;2023-11-19T17:50:20;4.63;;;4.23;;
1991;SDS011;997;48.448;8.924;2023-11-19T17:52:46;5.60;;;4.17;;
1991;SDS011;997;48.448;8.924;2023-11-19T17:55:12;4.83;;;4.43;;
1991;SDS011;997;48.448;8.924;2023-11-19T17:57:41;4.07;;;3.67;;
1991;SDS011;997;48.448;8.924;2023-11-19T18:00:08;4.93;;;3.00;;
1991;SDS011;997;48.448;8.924;2023-11-19T18:02:44;2.67;;;2.47;;
1991;SDS011;997;48.448;8.924;2023-11-19T18:05:14;3.47;;;3.20;;
1991;SDS011;997;48.448;8.924;2023-11-19T18:07:40;3.80;;;3.40;;
1991;SDS011;997;48.448;8.924;2023-11-19T18:10:07;4.17;;;3.87;;
1991;SDS011;997;48.448;8.924;2023-11-19T18:12:33;9.80;;;8.30;;
1991;SDS011;997;48.448;8.924;2023-11-19T18:15:01;14.87;;;9.57;;
1991;SDS011;997;48.448;8.924;2023-11-19T18:17:28;7.43;;;6.80;;
1991;SDS011;997;48.448;8.924;2023-11-19T18:19:54;3.60;;;3.30;;
1991;SDS011;997;48.448;8.924;2023-11-19T18:22:19;3.47;;;3.17;;
1991;SDS011;997;48.448;8.924;2023-11-19T18:24:45;3.70;;;3.40;;
1991;SDS011;997;48.448;8.924;2023-11-19T18:27:11;8.43;;;7.50;;
1991;SDS011;997;48.448;8.924;2023-11-19T18:29:36;12.10;;;10.90;;
1991;SDS011;997;48.448;8.924;2023-11-19T18:32:02;19.37;;;17.37;;
1991;SDS011;997;48.448;8.924;2023-11-19T18:34:29;34.23;;;27.77;;
1991;SDS011;997;48.448;8.924;2023-11-19T18:36:54;19.53;;;17.60;;
1991;SDS011;997;48.448;8.924;2023-11-19T18:39:20;7.33;;;6.73;;
1991;SDS011;997;48.448;8.924;2023-11-19T18:41:46;11.43;;;10.33;;
1991;SDS011;997;48.448;8.924;2023-11-19T18:44:11;9.43;;;8.63;;
1991;SDS011;997;48.448;8.924;2023-11-19T18:46:38;8.03;;;5.90;;
1991;SDS011;997;48.448;8.924;2023-11-19T18:49:04;5.87;;;5.37;;
1991;SDS011;997;48.448;8.924;2023-11-19T18:51:31;3.87;;;2.47;;
1991;SDS011;997;48.448;8.924;2023-11-19T18:53:57;4.57;;;3.50;;
1991;SDS011;997;48.448;8.924;2023-11-19T18:56:22;3.57;;;3.27;;
1991;SDS011;997;48.448;8.924;2023-11-19T18:58:49;3.77;;;3.20;;
1991;SDS011;997;48.448;8.924;2023-11-19T19:01:15;2.93;;;2.73;;
1991;SDS011;997;48.448;8.924;2023-11-19T19:03:42;28.30;;;24.37;;
1991;SDS011;997;48.448;8.924;2023-11-19T19:06:08;17.00;;;12.07;;
1991;SDS011;997;48.448;8.924;2023-11-19T19:08:34;23.63;;;20.13;;
1991;SDS011;997;48.448;8.924;2023-11-19T19:11:01;11.20;;;10.00;;
1991;SDS011;997;48.448;8.924;2023-11-19T19:13:27;7.20;;;6.67;;
1991;SDS011;997;48.448;8.924;2023-11-19T19:15:52;9.10;;;8.40;;
1991;SDS011;997;48.448;8.924;2023-11-19T19:18:18;6.10;;;5.60;;
1991;SDS011;997;48.448;8.924;2023-11-19T19:20:44;15.90;;;14.57;;
1991;SDS011;997;48.448;8.924;2023-11-19T19:23:11;10.30;;;8.93;;
1991;SDS011;997;48.448;8.924;2023-11-19T19:25:37;27.40;;;22.50;;
1991;SDS011;997;48.448;8.924;2023-11-19T19:28:02;15.03;;;13.50;;
1991;SDS011;997;48.448;8.924;2023-11-19T19:30:30;7.93;;;7.23;;
1991;SDS011;997;48.448;8.924;2023-11-19T19:32:56;17.27;;;15.60;;
1991;SDS011;997;48.448;8.924;2023-11-19T19:35:22;25.00;;;16.33;;
1991;SDS011;997;48.448;8.924;2023-11-19T19:37:53;28.73;;;25.60;;
1991;SDS011;997;48.448;8.924;2023-11-19T19:40:19;18.40;;;16.70;;
1991;SDS011;997;48.448;8.924;2023-11-19T19:42:45;7.50;;;6.80;;
1991;SDS011;997;48.448;8.924;2023-11-19T19:45:10;6.23;;;5.70;;
1991;SDS011;997;48.448;8.924;2023-11-19T19:47:39;5.10;;;4.70;;
1991;SDS011;997;48.448;8.924;2023-11-19T19:50:05;4.03;;;3.73;;
1991;SDS011;997;48.448;8.924;2023-11-19T19:52:41;4.93;;;2.57;;
1991;SDS011;997;48.448;8.924;2023-11-19T19:55:07;2.83;;;1.50;;
1991;SDS011;997;48.448;8.924;2023-11-19T19:57:33;2.40;;;1.60;;
1991;SDS011;997;48.448;8.924;2023-11-19T20:00:00;1.77;;;1.20;;
1991;SDS011;997;48.448;8.924;2023-11-19T20:02:26;1.20;;;1.10;;
1991;SDS011;997;48.448;8.924;2023-11-19T20:04:54;2.70;;;1.20;;
1991;SDS011;997;48.448;8.924;2023-11-19T20:07:20;3.03;;;1.23;;
1991;SDS011;997;48.448;8.924;2023-11-19T20:09:46;2.20;;;1.47;;
1991;SDS011;997;48.448;8.924;2023-11-19T20:12:11;1.97;;;1.73;;
1991;SDS011;997;48.448;8.924;2023-11-19T20:14:37;2.23;;;1.57;;
1991;SDS011;997;48.448;8.924;2023-11-19T20:17:04;2.43;;;2.10;;
1991;SDS011;997;48.448;8.924;2023-11-19T20:19:29;2.57;;;2.37;;
1991;SDS011;997;48.448;8.924;2023-11-19T20:21:55;1.60;;;1.50;;
1991;SDS011;997;48.448;8.924;2023-11-19T20:24:21;2.80;;;2.03;;
1991;SDS011;997;48.448;8.924;2023-11-19T20:26:47;3.40;;;3.03;;
1991;SDS011;997;48.448;8.924;2023-11-19T20:29:18;3.00;;;2.63;;
1991;SDS011;997;48.448;8.924;2023-11-19T20:31:43;2.00;;;1.63;;
1991;SDS011;997;48.448;8.924;2023-11-19T20:34:09;1.93;;;1.83;;
1991;SDS011;997;48.448;8.924;2023-11-19T20:36:35;1.80;;;1.60;;
1991;SDS011;997;48.448;8.924;2023-11-19T20:39:01;3.60;;;3.40;;
1991;SDS011;997;48.448;8.924;2023-11-19T20:41:27;2.57;;;2.40;;
1991;SDS011;997;48.448;8.924;2023-11-19T20:43:53;2.53;;;2.37;;
1991;SDS011;997;48.448;8.924;2023-11-19T20:46:22;3.30;;;3.00;;
1991;SDS011;997;48.448;8.924;2023-11-19T20:48:48;2.10;;;2.00;;
1991;SDS011;997;48.448;8.924;2023-11-19T20:51:15;13.97;;;12.83;;
1991;SDS011;997;48.448;8.924;2023-11-19T20:53:41;5.97;;;5.43;;
1991;SDS011;997;48.448;8.924;2023-11-19T20:56:07;5.67;;;2.77;;
1991;SDS011;997;48.448;8.924;2023-11-19T20:58:33;4.43;;;4.13;;
1991;SDS011;997;48.448;8.924;2023-11-19T21:01:00;7.47;;;6.80;;
1991;SDS011;997;48.448;8.924;2023-11-19T21:03:27;3.93;;;3.63;;
1991;SDS011;997;48.448;8.924;2023-11-19T21:05:53;1.90;;;1.50;;
1991;SDS011;997;48.448;8.924;2023-11-19T21:08:23;1.50;;;1.40;;
1991;SDS011;997;48.448;8.924;2023-11-19T21:10:49;1.20;;;1.10;;
1991;SDS011;997;48.448;8.924;2023-11-19T21:13:16;1.30;;;1.20;;
1991;SDS011;997;48.448;8.924;2023-11-19T21:15:43;1.37;;;1.00;;
1991;SDS011;997;48.448;8.924;2023-11-19T21:18:12;1.10;;;1.00;;
1991;SDS011;997;48.448;8.924;2023-11-19T21:20:38;1.20;;;1.10;;
1991;SDS011;997;48.448;8.924;2023-11-19T21:23:07;1.13;;;1.00;;
1991;SDS011;997;48.448;8.924;2023-11-19T21:25:33;3.00;;;1.03;;
1991;SDS011;997;48.448;8.924;2023-11-19T21:27:59;3.93;;;1.40;;
1991;SDS011;997;48.448;8.924;2023-11-19T21:30:24;3.10;;;1.43;;
1991;SDS011;997;48.448;8.924;2023-11-19T21:32:50;2.37;;;1.80;;
1991;SDS011;997;48.448;8.924;2023-11-19T21:35:17;1.60;;;1.50;;
1991;SDS011;997;48.448;8.924;2023-11-19T21:37:43;2.10;;;1.63;;
1991;SDS011;997;48.448;8.924;2023-11-19T21:40:08;1.63;;;1.30;;
1991;SDS011;997;48.448;8.924;2023-11-19T21:42:35;1.30;;;1.07;;
1991;SDS011;997;48.448;8.924;2023-11-19T21:45:01;1.40;;;1.20;;
1991;SDS011;997;48.448;8.924;2023-11-19T21:47:28;1.93;;;0.93;;
1991;SDS011;997;48.448;8.924;2023-11-19T21:49:54;2.10;;;1.77;;
1991;SDS011;997;48.448;8.924;2023-11-19T21:52:20;2.50;;;1.10;;
1991;SDS011;997;48.448;8.924;2023-11-19T21:54:45;1.20;;;1.10;;
1991;SDS011;997;48.448;8.924;2023-11-19T21:57:11;1.33;;;0.90;;
1991;SDS011;997;48.448;8.924;2023-11-19T21:59:37;4.47;;;1.30;;
1991;SDS011;997;48.448;8.924;2023-11-19T22:02:04;2.10;;;1.30;;
1991;SDS011;997;48.448;8.924;2023-11-19T22:04:33;2.23;;;1.10;;
1991;SDS011;997;48.448;8.924;2023-11-19T22:06:59;1.07;;;0.97;;
1991;SDS011;997;48.448;8.924;2023-11-19T22:09:25;2.17;;;1.27;;
1991;SDS011;997;48.448;8.924;2023-11-19T22:11:50;2.70;;;0.97;;
1991;SDS011;997;48.448;8.924;2023-11-19T22:14:16;4.67;;;1.57;;
1991;SDS011;997;48.448;8.924;2023-11-19T22:16:42;3.60;;;1.73;;
1991;SDS011;997;48.448;8.924;2023-11-19T22:19:07;2.23;;;1.63;;
1991;SDS011;997;48.448;8.924;2023-11-19T22:21:33;1.50;;;1.27;;
1991;SDS011;997;48.448;8.924;2023-11-19T22:24:00;1.43;;;1.20;;
1991;SDS011;997;48.448;8.924;2023-11-19T22:26:26;1.47;;;1.30;;
1991;SDS011;997;48.448;8.924;2023-11-19T22:28:52;2.80;;;1.20;;
1991;SDS011;997;48.448;8.924;2023-11-19T22:31:17;5.13;;;1.67;;
1991;SDS011;997;48.448;8.924;2023-11-19T22:33:43;2.40;;;1.57;;
1991;SDS011;997;48.448;8.924;2023-11-19T22:36:09;1.30;;;1.17;;
1991;SDS011;997;48.448;8.924;2023-11-19T22:38:35;2.93;;;1.20;;
1991;SDS011;997;48.448;8.924;2023-11-19T22:41:01;2.10;;;1.27;;
1991;SDS011;997;48.448;8.924;2023-11-19T22:43:27;1.33;;;1.13;;
1991;SDS011;997;48.448;8.924;2023-11-19T22:45:52;2.00;;;1.43;;
1991;SDS011;997;48.448;8.924;2023-11-19T22:48:18;3.60;;;1.17;;
1991;SDS011;997;48.448;8.924;2023-11-19T22:50:44;5.03;;;2.30;;
1991;SDS011;997;48.448;8.924;2023-11-19T22:53:10;4.30;;;1.73;;
1991;SDS011;997;48.448;8.924;2023-11-19T22:55:36;2.50;;;1.10;;
1991;SDS011;997;48.448;8.924;2023-11-19T22:58:03;1.67;;;1.30;;
1991;SDS011;997;48.448;8.924;2023-11-19T23:00:29;5.03;;;2.23;;
1991;SDS011;997;48.448;8.924;2023-11-19T23:02:55;2.87;;;1.80;;
1991;SDS011;997;48.448;8.924;2023-11-19T23:05:24;3.10;;;1.87;;
1991;SDS011;997;48.448;8.924;2023-11-19T23:07:55;2.20;;;1.37;;
1991;SDS011;997;48.448;8.924;2023-11-19T23:10:20;2.80;;;1.80;;
1991;SDS011;997;48.448;8.924;2023-11-19T23:12:47;2.50;;;1.30;;
1991;SDS011;997;48.448;8.924;2023-11-19T23:15:13;6.93;;;1.67;;
1991;SDS011;997;48.448;8.924;2023-11-19T23:17:42;1.83;;;1.57;;
1991;SDS011;997;48.448;8.924;2023-11-19T23:20:09;6.40;;;2.10;;
1991;SDS011;997;48.448;8.924;2023-11-19T23:22:39;5.20;;;2.37;;
1991;SDS011;997;48.448;8.924;2023-11-19T23:25:05;1.47;;;1.20;;
1991;SDS011;997;48.448;8.924;2023-11-19T23:27:32;3.20;;;1.83;;
1991;SDS011;997;48.448;8.924;2023-11-19T23:29:58;6.07;;;1.70;;
1991;SDS011;997;48.448;8.924;2023-11-19T23:32:24;2.80;;;1.77;;
1991;SDS011;997;48.448;8.924;2023-11-19T23:34:49;5.20;;;2.00;;
1991;SDS011;997;48.448;8.924;2023-11-19T23:37:15;4.90;;;1.83;;
1991;SDS011;997;48.448;8.924;2023-11-19T23:39:41;2.63;;;1.90;;
1991;SDS011;997;48.448;8.924;2023-11-19T23:42:06;1.63;;;1.40;;
1991;SDS011;997;48.448;8.924;2023-11-19T23:44:32;6.30;;;3.00;;
1991;SDS011;997;48.448;8.924;2023-11-19T23:46:58;2.80;;;1.43;;
1991;SDS011;997;48.448;8.924;2023-11-19T23:49:23;1.67;;;1.57;;
1991;SDS011;997;48.448;8.924;2023-11-19T23:51:50;24.20;;;3.97;;
1991;SDS011;997;48.448;8.924;2023-11-19T23:54:16;4.00;;;2.30;;
1991;SDS011;997;48.448;8.924;2023-11-19T23:56:42;12.40;;;2.47;;
1991;SDS011;997;48.448;8.924;2023-11-19T23:59:08;2.47;;;1.30;;
